This is the latest recevied weather packets stored in our database for station/object K0BL. If no packets are shown the sender has not sent any weather packets the latest 10 day(s).
| Time | Temp. | Humidity | Pressure | Rain* | Wind** | Luminosity | Snow |
|---|---|---|---|---|---|---|---|
| 1777514690 | 10° C | 64% | 1016 hPa | 0 mm | - | 0 W/m² | - |
| 1777514390 | 10° C | 63% | 1015.9 hPa | 0 mm | - | 0 W/m² | - |
| 1777514088 | 10° C | 63% | 1016 hPa | 0 mm | - | 0 W/m² | - |
| 1777512288 | 11.67° C | 52% | 1015.7 hPa | 0 mm | - | 0 W/m² | - |
| 1777511688 | 12.78° C | 50% | 1015.6 hPa | 0 mm | - | 0 W/m² | - |
| 1777508682 | 13.89° C | 47% | 1015.2 hPa | 0 mm | - | 30 W/m² | - |
| 1777506875 | 13.89° C | 48% | 1015.2 hPa | 0 mm | - | 55 W/m² | - |
| 1777505069 | 14.44° C | 46% | 1015.2 hPa | 0 mm | - | 90 W/m² | - |
| 1777503870 | 15° C | 45% | 1015.2 hPa | 0 mm | - | 162 W/m² | - |
| 1777500258 | 14.44° C | 49% | 1015.2 hPa | 0 mm | - | 125 W/m² | - |
| 1777496043 | 14.44° C | 47% | 1015.6 hPa | 0 mm | - | 659 W/m² | - |
| 1777493938 | 14.44° C | 50% | 1016.2 hPa | 0 mm | - | 400 W/m² | - |
| 1777490330 | 14.44° C | 50% | 1016.5 hPa | 0 mm | - | 525 W/m² | - |
| 1777490030 | 14.44° C | 51% | 1016.5 hPa | 0 mm | - | 1075 W/m² | - |
| 1777489127 | 13.33° C | 55% | 1016.6 hPa | 0 mm | - | 1078 W/m² | - |
| 1777487616 | 13.89° C | 51% | 1016.7 hPa | 0 mm | - | 338 W/m² | - |
| 1777487010 | 13.89° C | 51% | 1016.7 hPa | 0 mm | - | 1107 W/m² | - |
| 1777486110 | 13.89° C | 48% | 1016.8 hPa | 0 mm | - | 681 W/m² | - |
| 1777484907 | 13.33° C | 50% | 1017 hPa | 0 mm | - | 800 W/m² | - |
| 1777483105 | 13.33° C | 49% | 1017 hPa | 0 mm | - | 1076 W/m² | - |
| 1777480705 | 12.78° C | 53% | 1017 hPa | 0 mm | - | 569 W/m² | - |
| 1777475288 | 10.56° C | 64% | 1017.1 hPa | 0 mm | - | 323 W/m² | - |
| 1777473780 | 10.56° C | 63% | 1017.1 hPa | 0 mm | - | 609 W/m² | - |
| 1777469872 | 9.44° C | 66% | 1017 hPa | 0 mm | - | 350 W/m² | - |
| 1777464458 | 8.33° C | 76% | 1016.1 hPa | 0 mm | - | 66 W/m² | - |
* Rain latest hour (hover to see other rain measurements)
** Current wind speed in m/s (hover to see current wind gust speed)